Decoded Metar for PAKK (KOYUK in AK, USA) (IATA:KKA) | Meteo·Mobile Aviation Weather
aviador You're here:

PAKK Decoded Metar

KOYUK in AK, USA
Report Time2018-11-19 02:56:00
UTC Time2018-11-19 03:12:18
Flight Rules mvfr MVFR
Wind360° at 04 kt
W.Decomp.*RWY 01: 3.6 kt HW 1.8 kt LCW
Visibility9999 m
Phenomena:N/A
Clouds:Overcast 014 Hf
Expected CloudBase > 800 ft AGL from Temp-Dew spread
Ceiling1,400 ft
Temp00°C (ISA -15)
Dew Point-2°C (87% RH)
AAT-3.7°C
QNH996 hPa
Density Alt-984 ft
Elevation154 ft
Report Wrong Elevation
Raw Report
PAKK 190256Z AUTO 36004KT 10SM OVC014 00/M02 A2941 RMK AO2 SLP973
60000 T00001022 53002 FZRANO=

Extra information for PAKK:More info

Metar Taf Metar & Taf Last 4 Metars F.Rules Stats Wind Profile Meteogram Temp Stats Airport Information Weather charts Add Link Nearby VenuesMetar ALERT Operation Metar Decoded Social comments

AIRNAV info for PAKK